NORTHEAST SUFFOLK  -  Winter Weather Advisory Winter Weather Advisory        NORTHERN NASSAU  -  Winter Weather Advisory Winter Weather Advisory        NORTHWEST SUFFOLK  -  Winter Weather Advisory Winter Weather Advisory        SOUTHEAST SUFFOLK  -  Winter Weather Advisory Winter Weather Advisory        SOUTHERN NASSAU  -  Winter Weather Advisory Winter Weather Advisory        SOUTHWEST SUFFOLK  -  Winter Weather Advisory Winter Weather Advisory      

Active alerts

Northern Nassau
  Details for Northern Nassau Winter Weather Advisory
Southern Nassau
  Details for Southern Nassau Winter Weather Advisory
Northwest Suffolk
  Details for Northwest Suffolk Winter Weather Advisory
Southwest Suffolk
  Details for Southwest Suffolk Winter Weather Advisory
Northeast Suffolk
  Details for Northeast Suffolk Winter Weather Advisory
Southeast Suffolk
  Details for Southeast Suffolk Winter Weather Advisory


WXM80 ListenWXM80 Stop

You find our weather info also at:

UK Metoffice

WeatherCloud

Weather Underground

Northeastern Weather Network

AWEKAS

Citizen Weather Observer Program (CWOP)

HAMweather, WeatherForYou, PWS Weather


Weather Underground History page Text

Daily Summary for September 26, 2017 Units:  Both    English   Metric
« Previous Day
Next Day »
Daily Weekly Monthly Yearly Custom
  High: Low: Average:
Temperature: 79.6 °F /  26.4 °C 65.6 °F /  18.7 °C 71.6 °F /  22 °C
Dew Point: 72.5 °F /  22.5 °C 63.0 °F /  17.2 °C 68.3 °F /  20.2 °C
Humidity: 97 % 76 % 90 %
Wind Speed: 4.5 mph /  7.2 km/h - 0.5 mph /  0.8 km/h
Wind Gust: 7.0 mph /  11.3 km/h - -
Wind:- - ENE
Pressure: 29.95 in /  1014.1 hPa 29.85 in /  1010.7 hPa -
Precipitation: 0.00 in /  0 mm    
Historical Graphs
 
 
Tabular Data for September 26, 2017
Time Temperature Dew Point Pressure Wind Wind Speed Wind Gust Humidity Rainfall Rate (Hourly)
00:03 66.4 °F /  19.1 °C 63.4 °F /  17.4 °C 29.92 in /  1013.1 hPa Calm     90 % 0.00 in /  0 mm
00:08 66.3 °F /  19.1 °C 63.3 °F /  17.4 °C 29.93 in /  1013.4 hPa Calm     90 % 0.00 in /  0 mm
00:13 66.2 °F /  19 °C 63.5 °F /  17.5 °C 29.93 in /  1013.4 hPa Calm     91 % 0.00 in /  0 mm
00:18 66.1 °F /  18.9 °C 63.1 °F /  17.3 °C 29.92 in /  1013.1 hPa Calm     90 % 0.00 in /  0 mm
00:23 66.1 °F /  18.9 °C 63.1 °F /  17.3 °C 29.92 in /  1013.1 hPa Calm     90 % 0.00 in /  0 mm
00:28 65.9 °F /  18.8 °C 63.2 °F /  17.3 °C 29.92 in /  1013.1 hPa Calm     91 % 0.00 in /  0 mm
00:38 65.9 °F /  18.8 °C 63.2 °F /  17.3 °C 29.92 in /  1013.1 hPa Calm     91 % 0.00 in /  0 mm
00:43 65.8 °F /  18.8 °C 63.1 °F /  17.3 °C 29.92 in /  1013.1 hPa Calm     91 % 0.00 in /  0 mm
00:48 65.7 °F /  18.7 °C 63.0 °F /  17.2 °C 29.92 in /  1013.1 hPa Calm     91 % 0.00 in /  0 mm
00:53 65.7 °F /  18.7 °C 63.3 °F /  17.4 °C 29.92 in /  1013.1 hPa Calm     92 % 0.00 in /  0 mm
00:58 65.7 °F /  18.7 °C 63.3 °F /  17.4 °C 29.92 in /  1013.1 hPa SE 0.2 mph /  0.3 km/h 1.2 mph /  1.9 km/h 92 % 0.00 in /  0 mm
01:03 65.6 °F /  18.7 °C 63.2 °F /  17.3 °C 29.93 in /  1013.4 hPa Calm     92 % 0.00 in /  0 mm
01:08 65.6 °F /  18.7 °C 63.2 °F /  17.3 °C 29.93 in /  1013.4 hPa Calm     92 % 0.00 in /  0 mm
01:18 65.7 °F /  18.7 °C 63.6 °F /  17.6 °C 29.93 in /  1013.4 hPa Calm     93 % 0.00 in /  0 mm
01:23 65.7 °F /  18.7 °C 63.6 °F /  17.6 °C 29.93 in /  1013.4 hPa Calm     93 % 0.00 in /  0 mm
01:28 65.8 °F /  18.8 °C 63.7 °F /  17.6 °C 29.94 in /  1013.8 hPa SE 0.1 mph /  0.2 km/h 1.2 mph /  1.9 km/h 93 % 0.00 in /  0 mm
01:33 65.9 °F /  18.8 °C 64.1 °F /  17.8 °C 29.94 in /  1013.8 hPa Calm     94 % 0.00 in /  0 mm
01:38 66.0 °F /  18.9 °C 64.2 °F /  17.9 °C 29.94 in /  1013.8 hPa Calm     94 % 0.00 in /  0 mm
01:43 66.3 °F /  19.1 °C 64.8 °F /  18.2 °C 29.94 in /  1013.8 hPa Calm     95 % 0.00 in /  0 mm
01:48 66.6 °F /  19.2 °C 65.1 °F /  18.4 °C 29.95 in /  1014.1 hPa Calm     95 % 0.00 in /  0 mm
01:53 66.8 °F /  19.3 °C 65.3 °F /  18.5 °C 29.94 in /  1013.8 hPa SE 0.1 mph /  0.2 km/h 1.2 mph /  1.9 km/h 95 % 0.00 in /  0 mm
01:59 67.0 °F /  19.4 °C 65.5 °F /  18.6 °C 29.94 in /  1013.8 hPa SE 1.3 mph /  2.1 km/h 2.3 mph /  3.7 km/h 95 % 0.00 in /  0 mm
02:04 67.2 °F /  19.6 °C 66.0 °F /  18.9 °C 29.95 in /  1014.1 hPa SE 0.2 mph /  0.3 km/h 2.3 mph /  3.7 km/h 96 % 0.00 in /  0 mm
02:09 67.3 °F /  19.6 °C 65.8 °F /  18.8 °C 29.95 in /  1014.1 hPa SE 1.1 mph /  1.8 km/h 3.5 mph /  5.6 km/h 95 % 0.00 in /  0 mm
02:13 67.3 °F /  19.6 °C 65.8 °F /  18.8 °C 29.95 in /  1014.1 hPa SE 0.4 mph /  0.6 km/h 2.0 mph /  3.2 km/h 95 % 0.00 in /  0 mm
02:18 67.4 °F /  19.7 °C 65.9 °F /  18.8 °C 29.95 in /  1014.1 hPa SE 1.1 mph /  1.8 km/h 3.5 mph /  5.6 km/h 95 % 0.00 in /  0 mm
02:23 67.3 °F /  19.6 °C 65.8 °F /  18.8 °C 29.95 in /  1014.1 hPa Calm   2.3 mph /  3.7 km/h 95 % 0.00 in /  0 mm
02:28 67.3 °F /  19.6 °C 65.8 °F /  18.8 °C 29.94 in /  1013.8 hPa SE 1.1 mph /  1.8 km/h 2.3 mph /  3.7 km/h 95 % 0.00 in /  0 mm
02:33 67.3 °F /  19.6 °C 65.8 °F /  18.8 °C 29.94 in /  1013.8 hPa SE 1.5 mph /  2.4 km/h 3.5 mph /  5.6 km/h 95 % 0.00 in /  0 mm
02:38 67.4 °F /  19.7 °C 66.2 °F /  19 °C 29.94 in /  1013.8 hPa Calm   3.5 mph /  5.6 km/h 96 % 0.00 in /  0 mm
02:43 67.4 °F /  19.7 °C 66.2 °F /  19 °C 29.94 in /  1013.8 hPa Calm     96 % 0.00 in /  0 mm
02:49 67.4 °F /  19.7 °C 66.2 °F /  19 °C 29.94 in /  1013.8 hPa Calm     96 % 0.00 in /  0 mm
02:50 67.4 °F /  19.7 °C 66.2 °F /  19 °C 29.94 in /  1013.8 hPa Calm     96 % 0.00 in /  0 mm
02:55 67.4 °F /  19.7 °C 66.2 °F /  19 °C 29.93 in /  1013.4 hPa Calm     96 % 0.00 in /  0 mm
03:00 67.4 °F /  19.7 °C 66.2 °F /  19 °C 29.94 in /  1013.8 hPa Calm     96 % 0.00 in /  0 mm
03:05 67.4 °F /  19.7 °C 66.2 °F /  19 °C 29.94 in /  1013.8 hPa Calm     96 % 0.00 in /  0 mm
03:10 67.4 °F /  19.7 °C 66.2 °F /  19 °C 29.93 in /  1013.4 hPa Calm     96 % 0.00 in /  0 mm
03:15 67.4 °F /  19.7 °C 66.2 °F /  19 °C 29.93 in /  1013.4 hPa Calm     96 % 0.00 in /  0 mm
03:20 67.4 °F /  19.7 °C 66.2 °F /  19 °C 29.93 in /  1013.4 hPa Calm     96 % 0.00 in /  0 mm
03:25 67.4 °F /  19.7 °C 66.2 °F /  19 °C 29.93 in /  1013.4 hPa Calm     96 % 0.00 in /  0 mm
03:30 67.5 °F /  19.7 °C 66.3 °F /  19.1 °C 29.93 in /  1013.4 hPa Calm     96 % 0.00 in /  0 mm
03:35 67.5 °F /  19.7 °C 66.3 °F /  19.1 °C 29.93 in /  1013.4 hPa Calm     96 % 0.00 in /  0 mm
03:40 67.5 °F /  19.7 °C 66.3 °F /  19.1 °C 29.93 in /  1013.4 hPa Calm     96 % 0.00 in /  0 mm
03:46 67.5 °F /  19.7 °C 66.3 °F /  19.1 °C 29.93 in /  1013.4 hPa Calm     96 % 0.00 in /  0 mm
03:51 67.6 °F /  19.8 °C 66.4 °F /  19.1 °C 29.93 in /  1013.4 hPa Calm     96 % 0.00 in /  0 mm
03:56 67.5 °F /  19.7 °C 66.3 °F /  19.1 °C 29.93 in /  1013.4 hPa Calm     96 % 0.00 in /  0 mm
04:01 67.5 °F /  19.7 °C 66.3 °F /  19.1 °C 29.93 in /  1013.4 hPa Calm     96 % 0.00 in /  0 mm
04:06 67.5 °F /  19.7 °C 66.3 °F /  19.1 °C 29.92 in /  1013.1 hPa Calm     96 % 0.00 in /  0 mm
04:11 67.6 °F /  19.8 °C 66.4 °F /  19.1 °C 29.93 in /  1013.4 hPa Calm     96 % 0.00 in /  0 mm
04:16 67.6 °F /  19.8 °C 66.4 °F /  19.1 °C 29.92 in /  1013.1 hPa Calm     96 % 0.00 in /  0 mm
04:21 67.6 °F /  19.8 °C 66.4 °F /  19.1 °C 29.92 in /  1013.1 hPa Calm     96 % 0.00 in /  0 mm
04:26 67.6 °F /  19.8 °C 66.4 °F /  19.1 °C 29.92 in /  1013.1 hPa Calm     96 % 0.00 in /  0 mm
04:31 67.6 °F /  19.8 °C 66.4 °F /  19.1 °C 29.92 in /  1013.1 hPa Calm     96 % 0.00 in /  0 mm
04:36 67.5 °F /  19.7 °C 66.3 °F /  19.1 °C 29.92 in /  1013.1 hPa Calm     96 % 0.00 in /  0 mm
04:41 67.5 °F /  19.7 °C 66.3 °F /  19.1 °C 29.93 in /  1013.4 hPa Calm     96 % 0.00 in /  0 mm
04:46 67.5 °F /  19.7 °C 66.3 °F /  19.1 °C 29.92 in /  1013.1 hPa Calm     96 % 0.00 in /  0 mm
04:51 67.4 °F /  19.7 °C 66.2 °F /  19 °C 29.92 in /  1013.1 hPa NNE 1.5 mph /  2.4 km/h 3.5 mph /  5.6 km/h 96 % 0.00 in /  0 mm
04:56 67.4 °F /  19.7 °C 66.2 °F /  19 °C 29.92 in /  1013.1 hPa Calm   1.2 mph /  1.9 km/h 96 % 0.00 in /  0 mm
05:01 67.5 °F /  19.7 °C 66.3 °F /  19.1 °C 29.91 in /  1012.8 hPa North 1.7 mph /  2.7 km/h 5.0 mph /  8 km/h 96 % 0.00 in /  0 mm
05:07 67.4 °F /  19.7 °C 66.2 °F /  19 °C 29.91 in /  1012.8 hPa North 0.1 mph /  0.2 km/h 1.2 mph /  1.9 km/h 96 % 0.00 in /  0 mm
05:12 67.4 °F /  19.7 °C 66.2 °F /  19 °C 29.91 in /  1012.8 hPa Calm     96 % 0.00 in /  0 mm
05:17 67.4 °F /  19.7 °C 66.2 °F /  19 °C 29.91 in /  1012.8 hPa NE 0.4 mph /  0.6 km/h 1.2 mph /  1.9 km/h 96 % 0.00 in /  0 mm
05:22 67.5 °F /  19.7 °C 66.3 °F /  19.1 °C 29.91 in /  1012.8 hPa NNE 1.4 mph /  2.3 km/h 4.0 mph /  6.4 km/h 96 % 0.00 in /  0 mm
05:27 67.5 °F /  19.7 °C 66.3 °F /  19.1 °C 29.92 in /  1013.1 hPa NNE 0.1 mph /  0.2 km/h 1.2 mph /  1.9 km/h 96 % 0.00 in /  0 mm
05:32 67.5 °F /  19.7 °C 66.3 °F /  19.1 °C 29.92 in /  1013.1 hPa Calm     96 % 0.00 in /  0 mm
05:47 67.5 °F /  19.7 °C 66.3 °F /  19.1 °C 29.92 in /  1013.1 hPa Calm     96 % 0.00 in /  0 mm
05:52 67.5 °F /  19.7 °C 66.3 °F /  19.1 °C 29.93 in /  1013.4 hPa Calm     96 % 0.00 in /  0 mm
05:57 67.5 °F /  19.7 °C 66.3 °F /  19.1 °C 29.93 in /  1013.4 hPa Calm     96 % 0.00 in /  0 mm
06:02 67.5 °F /  19.7 °C 66.3 °F /  19.1 °C 29.93 in /  1013.4 hPa Calm     96 % 0.00 in /  0 mm
06:05 67.5 °F /  19.7 °C 66.3 °F /  19.1 °C 29.93 in /  1013.4 hPa Calm     96 % 0.00 in /  0 mm
06:10 67.5 °F /  19.7 °C 66.3 °F /  19.1 °C 29.93 in /  1013.4 hPa Calm     96 % 0.00 in /  0 mm
06:15 67.5 °F /  19.7 °C 66.3 °F /  19.1 °C 29.93 in /  1013.4 hPa NNE 0.2 mph /  0.3 km/h 2.3 mph /  3.7 km/h 96 % 0.00 in /  0 mm
06:21 67.6 °F /  19.8 °C 66.4 °F /  19.1 °C 29.93 in /  1013.4 hPa Calm     96 % 0.00 in /  0 mm
06:25 67.6 °F /  19.8 °C 66.4 °F /  19.1 °C 29.93 in /  1013.4 hPa NNE 0.6 mph /  1 km/h 2.3 mph /  3.7 km/h 96 % 0.00 in /  0 mm
06:26 67.6 °F /  19.8 °C 66.4 °F /  19.1 °C 29.93 in /  1013.4 hPa NNE 0.3 mph /  0.5 km/h 2.3 mph /  3.7 km/h 96 % 0.00 in /  0 mm
06:31 67.6 °F /  19.8 °C 66.4 °F /  19.1 °C 29.93 in /  1013.4 hPa NNE 0.6 mph /  1 km/h 2.3 mph /  3.7 km/h 96 % 0.00 in /  0 mm
06:36 67.6 °F /  19.8 °C 66.4 °F /  19.1 °C 29.93 in /  1013.4 hPa Calm     96 % 0.00 in /  0 mm
06:41 67.6 °F /  19.8 °C 66.7 °F /  19.3 °C 29.93 in /  1013.4 hPa Calm     97 % 0.00 in /  0 mm
06:46 67.7 °F /  19.8 °C 66.5 °F /  19.2 °C 29.93 in /  1013.4 hPa NNE 0.1 mph /  0.2 km/h 1.2 mph /  1.9 km/h 96 % 0.00 in /  0 mm
06:51 67.7 °F /  19.8 °C 66.8 °F /  19.3 °C 29.94 in /  1013.8 hPa NNE 0.1 mph /  0.2 km/h   97 % 0.00 in /  0 mm
06:56 67.6 °F /  19.8 °C 66.7 °F /  19.3 °C 29.94 in /  1013.8 hPa Calm     97 % 0.00 in /  0 mm
07:01 67.7 °F /  19.8 °C 66.8 °F /  19.3 °C 29.93 in /  1013.4 hPa NNE 0.3 mph /  0.5 km/h 1.2 mph /  1.9 km/h 97 % 0.00 in /  0 mm
07:06 67.8 °F /  19.9 °C 66.9 °F /  19.4 °C 29.93 in /  1013.4 hPa NNE 0.2 mph /  0.3 km/h   97 % 0.00 in /  0 mm
07:11 67.8 °F /  19.9 °C 66.9 °F /  19.4 °C 29.94 in /  1013.8 hPa Calm     97 % 0.00 in /  0 mm
07:16 67.9 °F /  19.9 °C 67.0 °F /  19.4 °C 29.94 in /  1013.8 hPa Calm   1.2 mph /  1.9 km/h 97 % 0.00 in /  0 mm
07:21 67.9 °F /  19.9 °C 67.0 °F /  19.4 °C 29.94 in /  1013.8 hPa NE 0.8 mph /  1.3 km/h 1.0 mph /  1.6 km/h 97 % 0.00 in /  0 mm
07:26 67.9 °F /  19.9 °C 67.0 °F /  19.4 °C 29.94 in /  1013.8 hPa NE 0.2 mph /  0.3 km/h 1.2 mph /  1.9 km/h 97 % 0.00 in /  0 mm
07:32 68.0 °F /  20 °C 67.1 °F /  19.5 °C 29.94 in /  1013.8 hPa NE 0.1 mph /  0.2 km/h 1.0 mph /  1.6 km/h 97 % 0.00 in /  0 mm
07:37 68.0 °F /  20 °C 67.1 °F /  19.5 °C 29.94 in /  1013.8 hPa NE 0.5 mph /  0.8 km/h 2.3 mph /  3.7 km/h 97 % 0.00 in /  0 mm
07:42 68.0 °F /  20 °C 67.1 °F /  19.5 °C 29.94 in /  1013.8 hPa NE 0.8 mph /  1.3 km/h 2.3 mph /  3.7 km/h 97 % 0.00 in /  0 mm
07:47 68.1 °F /  20.1 °C 67.2 °F /  19.6 °C 29.94 in /  1013.8 hPa NE 0.2 mph /  0.3 km/h 1.2 mph /  1.9 km/h 97 % 0.00 in /  0 mm
07:52 68.2 °F /  20.1 °C 67.3 °F /  19.6 °C 29.94 in /  1013.8 hPa Calm     97 % 0.00 in /  0 mm
07:57 68.3 °F /  20.2 °C 67.4 °F /  19.7 °C 29.94 in /  1013.8 hPa Calm   2.3 mph /  3.7 km/h 97 % 0.00 in /  0 mm
08:02 68.4 °F /  20.2 °C 67.5 °F /  19.7 °C 29.94 in /  1013.8 hPa NE 2.3 mph /  3.7 km/h 4.0 mph /  6.4 km/h 97 % 0.00 in /  0 mm
08:07 68.5 °F /  20.3 °C 67.6 °F /  19.8 °C 29.94 in /  1013.8 hPa Calm   1.2 mph /  1.9 km/h 97 % 0.00 in /  0 mm
08:12 68.6 °F /  20.3 °C 67.7 °F /  19.8 °C 29.94 in /  1013.8 hPa Calm   2.0 mph /  3.2 km/h 97 % 0.00 in /  0 mm
08:17 68.7 °F /  20.4 °C 67.8 °F /  19.9 °C 29.95 in /  1014.1 hPa Calm     97 % 0.00 in /  0 mm
08:22 68.8 °F /  20.4 °C 67.9 °F /  19.9 °C 29.95 in /  1014.1 hPa Calm     97 % 0.00 in /  0 mm
08:27 68.9 °F /  20.5 °C 68.0 °F /  20 °C 29.95 in /  1014.1 hPa Calm     97 % 0.00 in /  0 mm
08:33 69.0 °F /  20.6 °C 68.1 °F /  20.1 °C 29.95 in /  1014.1 hPa Calm   1.0 mph /  1.6 km/h 97 % 0.00 in /  0 mm
08:38 69.1 °F /  20.6 °C 68.2 °F /  20.1 °C 29.95 in /  1014.1 hPa Calm     97 % 0.00 in /  0 mm
08:43 69.2 °F /  20.7 °C 68.3 °F /  20.2 °C 29.95 in /  1014.1 hPa Calm   1.2 mph /  1.9 km/h 97 % 0.00 in /  0 mm
08:48 69.4 °F /  20.8 °C 68.5 °F /  20.3 °C 29.95 in /  1014.1 hPa NE 0.1 mph /  0.2 km/h 2.3 mph /  3.7 km/h 97 % 0.00 in /  0 mm
08:53 69.4 °F /  20.8 °C 68.5 °F /  20.3 °C 29.95 in /  1014.1 hPa Calm     97 % 0.00 in /  0 mm
08:58 69.5 °F /  20.8 °C 68.6 °F /  20.3 °C 29.95 in /  1014.1 hPa Calm     97 % 0.00 in /  0 mm
09:03 69.6 °F /  20.9 °C 68.7 °F /  20.4 °C 29.95 in /  1014.1 hPa NE 0.3 mph /  0.5 km/h 2.3 mph /  3.7 km/h 97 % 0.00 in /  0 mm
09:08 69.7 °F /  20.9 °C 68.8 °F /  20.4 °C 29.95 in /  1014.1 hPa Calm   1.2 mph /  1.9 km/h 97 % 0.00 in /  0 mm
09:13 69.7 °F /  20.9 °C 68.8 °F /  20.4 °C 29.95 in /  1014.1 hPa NE 0.2 mph /  0.3 km/h 1.2 mph /  1.9 km/h 97 % 0.00 in /  0 mm
09:18 69.7 °F /  20.9 °C 68.5 °F /  20.3 °C 29.95 in /  1014.1 hPa Calm   1.2 mph /  1.9 km/h 96 % 0.00 in /  0 mm
09:23 69.9 °F /  21.1 °C 68.7 °F /  20.4 °C 29.95 in /  1014.1 hPa NE 1.3 mph /  2.1 km/h 4.0 mph /  6.4 km/h 96 % 0.00 in /  0 mm
09:28 70.0 °F /  21.1 °C 68.8 °F /  20.4 °C 29.95 in /  1014.1 hPa Calm     96 % 0.00 in /  0 mm
09:33 70.1 °F /  21.2 °C 68.9 °F /  20.5 °C 29.95 in /  1014.1 hPa NE 0.1 mph /  0.2 km/h 1.0 mph /  1.6 km/h 96 % 0.00 in /  0 mm
09:38 70.4 °F /  21.3 °C 69.2 °F /  20.7 °C 29.95 in /  1014.1 hPa NE 0.1 mph /  0.2 km/h 1.2 mph /  1.9 km/h 96 % 0.00 in /  0 mm
09:43 70.4 °F /  21.3 °C 68.9 °F /  20.5 °C 29.95 in /  1014.1 hPa NE 0.1 mph /  0.2 km/h 1.2 mph /  1.9 km/h 95 % 0.00 in /  0 mm
09:48 70.6 °F /  21.4 °C 69.1 °F /  20.6 °C 29.95 in /  1014.1 hPa Calm   1.2 mph /  1.9 km/h 95 % 0.00 in /  0 mm
09:53 70.8 °F /  21.6 °C 69.3 °F /  20.7 °C 29.95 in /  1014.1 hPa ENE 0.1 mph /  0.2 km/h 1.0 mph /  1.6 km/h 95 % 0.00 in /  0 mm
09:58 71.0 °F /  21.7 °C 69.2 °F /  20.7 °C 29.95 in /  1014.1 hPa Calm   1.2 mph /  1.9 km/h 94 % 0.00 in /  0 mm
10:03 71.2 °F /  21.8 °C 69.1 °F /  20.6 °C 29.95 in /  1014.1 hPa Calm   1.2 mph /  1.9 km/h 93 % 0.00 in /  0 mm
10:08 71.4 °F /  21.9 °C 69.3 °F /  20.7 °C 29.95 in /  1014.1 hPa NE 0.4 mph /  0.6 km/h 1.2 mph /  1.9 km/h 93 % 0.00 in /  0 mm
10:13 71.6 °F /  22 °C 69.5 °F /  20.8 °C 29.95 in /  1014.1 hPa NE 0.1 mph /  0.2 km/h 1.2 mph /  1.9 km/h 93 % 0.00 in /  0 mm
10:18 71.8 °F /  22.1 °C 69.3 °F /  20.7 °C 29.95 in /  1014.1 hPa NE 1.9 mph /  3.1 km/h 3.5 mph /  5.6 km/h 92 % 0.00 in /  0 mm
10:23 72.0 °F /  22.2 °C 69.2 °F /  20.7 °C 29.95 in /  1014.1 hPa ENE 0.9 mph /  1.4 km/h 2.3 mph /  3.7 km/h 91 % 0.00 in /  0 mm
10:28 72.1 °F /  22.3 °C 69.3 °F /  20.7 °C 29.95 in /  1014.1 hPa ENE 1.5 mph /  2.4 km/h 4.6 mph /  7.4 km/h 91 % 0.00 in /  0 mm
10:33 72.2 °F /  22.3 °C 69.4 °F /  20.8 °C 29.95 in /  1014.1 hPa NE 1.0 mph /  1.6 km/h 3.5 mph /  5.6 km/h 91 % 0.00 in /  0 mm
10:38 72.3 °F /  22.4 °C 69.5 °F /  20.8 °C 29.95 in /  1014.1 hPa NE 0.5 mph /  0.8 km/h 3.5 mph /  5.6 km/h 91 % 0.00 in /  0 mm
10:43 72.5 °F /  22.5 °C 69.4 °F /  20.8 °C 29.94 in /  1013.8 hPa NE 2.1 mph /  3.4 km/h 5.0 mph /  8 km/h 90 % 0.00 in /  0 mm
10:48 72.7 °F /  22.6 °C 69.6 °F /  20.9 °C 29.95 in /  1014.1 hPa ENE 0.3 mph /  0.5 km/h 2.3 mph /  3.7 km/h 90 % 0.00 in /  0 mm
10:53 72.9 °F /  22.7 °C 69.8 °F /  21 °C 29.95 in /  1014.1 hPa NNE 1.5 mph /  2.4 km/h 3.5 mph /  5.6 km/h 90 % 0.00 in /  0 mm
10:58 73.2 °F /  22.9 °C 69.8 °F /  21 °C 29.94 in /  1013.8 hPa NNE 2.3 mph /  3.7 km/h 4.0 mph /  6.4 km/h 89 % 0.00 in /  0 mm
11:03 73.4 °F /  23 °C 69.6 °F /  20.9 °C 29.94 in /  1013.8 hPa ENE 0.7 mph /  1.1 km/h 3.0 mph /  4.8 km/h 88 % 0.00 in /  0 mm
11:08 73.7 °F /  23.2 °C 69.9 °F /  21.1 °C 29.95 in /  1014.1 hPa Calm   2.3 mph /  3.7 km/h 88 % 0.00 in /  0 mm
11:13 73.9 °F /  23.3 °C 70.1 °F /  21.2 °C 29.94 in /  1013.8 hPa Calm     88 % 0.00 in /  0 mm
11:18 74.3 °F /  23.5 °C 70.5 °F /  21.4 °C 29.94 in /  1013.8 hPa NNE 1.7 mph /  2.7 km/h 3.5 mph /  5.6 km/h 88 % 0.00 in /  0 mm
11:23 74.8 °F /  23.8 °C 70.7 °F /  21.5 °C 29.94 in /  1013.8 hPa NNW 1.5 mph /  2.4 km/h 4.0 mph /  6.4 km/h 87 % 0.00 in /  0 mm
11:28 75.3 °F /  24.1 °C 70.8 °F /  21.6 °C 29.94 in /  1013.8 hPa ENE 1.2 mph /  1.9 km/h 3.5 mph /  5.6 km/h 86 % 0.00 in /  0 mm
11:33 76.0 °F /  24.4 °C 71.2 °F /  21.8 °C 29.94 in /  1013.8 hPa NE 1.4 mph /  2.3 km/h 2.3 mph /  3.7 km/h 85 % 0.00 in /  0 mm
11:39 76.4 °F /  24.7 °C 70.9 °F /  21.6 °C 29.94 in /  1013.8 hPa NNE 3.3 mph /  5.3 km/h 4.0 mph /  6.4 km/h 83 % 0.00 in /  0 mm
11:44 76.8 °F /  24.9 °C 71.2 °F /  21.8 °C 29.94 in /  1013.8 hPa NNE 1.3 mph /  2.1 km/h 3.5 mph /  5.6 km/h 83 % 0.00 in /  0 mm
11:49 77.4 °F /  25.2 °C 71.5 °F /  21.9 °C 29.94 in /  1013.8 hPa ENE 2.4 mph /  3.9 km/h 4.0 mph /  6.4 km/h 82 % 0.00 in /  0 mm
11:54 77.9 °F /  25.5 °C 72.0 °F /  22.2 °C 29.93 in /  1013.4 hPa North 1.9 mph /  3.1 km/h 4.6 mph /  7.4 km/h 82 % 0.00 in /  0 mm
11:59 78.3 °F /  25.7 °C 71.6 °F /  22 °C 29.93 in /  1013.4 hPa NNE 1.9 mph /  3.1 km/h 5.0 mph /  8 km/h 80 % 0.00 in /  0 mm
12:04 78.5 °F /  25.8 °C 71.1 °F /  21.7 °C 29.93 in /  1013.4 hPa ENE 1.5 mph /  2.4 km/h 3.5 mph /  5.6 km/h 78 % 0.00 in /  0 mm
12:09 78.7 °F /  25.9 °C 71.6 °F /  22 °C 29.93 in /  1013.4 hPa North 1.8 mph /  2.9 km/h 6.0 mph /  9.7 km/h 79 % 0.00 in /  0 mm
12:19 79.3 °F /  26.3 °C 72.2 °F /  22.3 °C 29.93 in /  1013.4 hPa NNE 4.5 mph /  7.2 km/h 7.0 mph /  11.3 km/h 79 % 0.00 in /  0 mm
12:24 79.4 °F /  26.3 °C 71.9 °F /  22.2 °C 29.92 in /  1013.1 hPa NNE 2.2 mph /  3.5 km/h 3.5 mph /  5.6 km/h 78 % 0.00 in /  0 mm
12:29 79.3 °F /  26.3 °C 71.5 °F /  21.9 °C 29.93 in /  1013.4 hPa North 2.7 mph /  4.3 km/h 4.6 mph /  7.4 km/h 77 % 0.00 in /  0 mm
12:34 79.1 °F /  26.2 °C 70.9 °F /  21.6 °C 29.93 in /  1013.4 hPa NNE 2.5 mph /  4 km/h 4.6 mph /  7.4 km/h 76 % 0.00 in /  0 mm
12:39 79.0 °F /  26.1 °C 71.6 °F /  22 °C 29.93 in /  1013.4 hPa North 1.3 mph /  2.1 km/h 4.0 mph /  6.4 km/h 78 % 0.00 in /  0 mm
12:44 79.1 °F /  26.2 °C 71.6 °F /  22 °C 29.93 in /  1013.4 hPa North 2.3 mph /  3.7 km/h 4.6 mph /  7.4 km/h 78 % 0.00 in /  0 mm
12:49 79.1 °F /  26.2 °C 70.9 °F /  21.6 °C 29.92 in /  1013.1 hPa ENE 2.6 mph /  4.2 km/h 4.0 mph /  6.4 km/h 76 % 0.00 in /  0 mm
12:54 79.0 °F /  26.1 °C 71.9 °F /  22.2 °C 29.92 in /  1013.1 hPa ENE 1.5 mph /  2.4 km/h 3.5 mph /  5.6 km/h 79 % 0.00 in /  0 mm
12:59 79.1 °F /  26.2 °C 71.3 °F /  21.8 °C 29.92 in /  1013.1 hPa North 2.7 mph /  4.3 km/h 4.6 mph /  7.4 km/h 77 % 0.00 in /  0 mm
13:04 79.0 °F /  26.1 °C 71.6 °F /  22 °C 29.92 in /  1013.1 hPa North 1.8 mph /  2.9 km/h 5.8 mph /  9.3 km/h 78 % 0.00 in /  0 mm
13:10 78.9 °F /  26.1 °C 71.5 °F /  21.9 °C 29.92 in /  1013.1 hPa NE 2.2 mph /  3.5 km/h 3.5 mph /  5.6 km/h 78 % 0.00 in /  0 mm
13:13 78.9 °F /  26.1 °C 71.5 °F /  21.9 °C 29.92 in /  1013.1 hPa ENE 1.9 mph /  3.1 km/h 5.8 mph /  9.3 km/h 78 % 0.00 in /  0 mm
13:18 79.0 °F /  26.1 °C 71.6 °F /  22 °C 29.91 in /  1012.8 hPa NE 1.2 mph /  1.9 km/h 3.5 mph /  5.6 km/h 78 % 0.00 in /  0 mm
13:23 79.0 °F /  26.1 °C 71.6 °F /  22 °C 29.91 in /  1012.8 hPa NNE 3.2 mph /  5.1 km/h 3.5 mph /  5.6 km/h 78 % 0.00 in /  0 mm
13:28 78.8 °F /  26 °C 71.0 °F /  21.7 °C 29.91 in /  1012.8 hPa NE 1.3 mph /  2.1 km/h 3.5 mph /  5.6 km/h 77 % 0.00 in /  0 mm
13:33 78.9 °F /  26.1 °C 71.8 °F /  22.1 °C 29.90 in /  1012.4 hPa ENE 1.9 mph /  3.1 km/h 3.5 mph /  5.6 km/h 79 % 0.00 in /  0 mm
13:38 78.9 °F /  26.1 °C 71.8 °F /  22.1 °C 29.91 in /  1012.8 hPa ENE 2.9 mph /  4.7 km/h 5.8 mph /  9.3 km/h 79 % 0.00 in /  0 mm
13:43 79.1 °F /  26.2 °C 72.0 °F /  22.2 °C 29.91 in /  1012.8 hPa NNE 1.4 mph /  2.3 km/h 3.5 mph /  5.6 km/h 79 % 0.00 in /  0 mm
13:46 79.2 °F /  26.2 °C 72.1 °F /  22.3 °C 29.90 in /  1012.4 hPa NE 2.0 mph /  3.2 km/h 4.0 mph /  6.4 km/h 79 % 0.00 in /  0 mm
13:51 79.3 °F /  26.3 °C 71.5 °F /  21.9 °C 29.91 in /  1012.8 hPa NE 2.0 mph /  3.2 km/h 5.0 mph /  8 km/h 77 % 0.00 in /  0 mm
13:55 79.1 °F /  26.2 °C 72.0 °F /  22.2 °C 29.90 in /  1012.4 hPa North 2.3 mph /  3.7 km/h 4.0 mph /  6.4 km/h 79 % 0.00 in /  0 mm
13:57 79.1 °F /  26.2 °C 72.0 °F /  22.2 °C 29.90 in /  1012.4 hPa NNE 2.7 mph /  4.3 km/h 4.6 mph /  7.4 km/h 79 % 0.00 in /  0 mm
14:02 79.4 °F /  26.3 °C 72.3 °F /  22.4 °C 29.91 in /  1012.8 hPa ENE 0.7 mph /  1.1 km/h 3.5 mph /  5.6 km/h 79 % 0.00 in /  0 mm
14:07 79.6 °F /  26.4 °C 72.5 °F /  22.5 °C 29.91 in /  1012.8 hPa ENE 0.6 mph /  1 km/h 2.3 mph /  3.7 km/h 79 % 0.00 in /  0 mm
14:12 79.6 °F /  26.4 °C 72.1 °F /  22.3 °C 29.90 in /  1012.4 hPa NE 0.4 mph /  0.6 km/h 2.0 mph /  3.2 km/h 78 % 0.00 in /  0 mm
14:17 79.3 °F /  26.3 °C 71.8 °F /  22.1 °C 29.90 in /  1012.4 hPa North 1.1 mph /  1.8 km/h 4.0 mph /  6.4 km/h 78 % 0.00 in /  0 mm
14:22 79.1 °F /  26.2 °C 71.6 °F /  22 °C 29.90 in /  1012.4 hPa NE 2.6 mph /  4.2 km/h 3.5 mph /  5.6 km/h 78 % 0.00 in /  0 mm
14:27 79.0 °F /  26.1 °C 71.6 °F /  22 °C 29.90 in /  1012.4 hPa North 2.0 mph /  3.2 km/h 3.5 mph /  5.6 km/h 78 % 0.00 in /  0 mm
14:32 79.0 °F /  26.1 °C 71.6 °F /  22 °C 29.89 in /  1012.1 hPa North 1.7 mph /  2.7 km/h 3.5 mph /  5.6 km/h 78 % 0.00 in /  0 mm
14:37 78.9 °F /  26.1 °C 71.5 °F /  21.9 °C 29.89 in /  1012.1 hPa NNE 2.1 mph /  3.4 km/h 3.5 mph /  5.6 km/h 78 % 0.00 in /  0 mm
14:42 78.7 °F /  25.9 °C 71.6 °F /  22 °C 29.89 in /  1012.1 hPa NNE 1.2 mph /  1.9 km/h 3.5 mph /  5.6 km/h 79 % 0.00 in /  0 mm
14:47 78.6 °F /  25.9 °C 71.5 °F /  21.9 °C 29.89 in /  1012.1 hPa ENE 1.6 mph /  2.6 km/h 3.5 mph /  5.6 km/h 79 % 0.00 in /  0 mm
14:52 78.5 °F /  25.8 °C 71.4 °F /  21.9 °C 29.89 in /  1012.1 hPa ENE 0.9 mph /  1.4 km/h 3.5 mph /  5.6 km/h 79 % 0.00 in /  0 mm
14:57 78.4 °F /  25.8 °C 71.3 °F /  21.8 °C 29.89 in /  1012.1 hPa ENE 2.2 mph /  3.5 km/h 3.5 mph /  5.6 km/h 79 % 0.00 in /  0 mm
15:02 78.3 °F /  25.7 °C 71.6 °F /  22 °C 29.88 in /  1011.7 hPa NE 1.4 mph /  2.3 km/h 3.5 mph /  5.6 km/h 80 % 0.00 in /  0 mm
15:08 78.2 °F /  25.7 °C 71.5 °F /  21.9 °C 29.88 in /  1011.7 hPa NE 0.3 mph /  0.5 km/h 1.2 mph /  1.9 km/h 80 % 0.00 in /  0 mm
15:13 78.3 °F /  25.7 °C 71.6 °F /  22 °C 29.88 in /  1011.7 hPa NE 0.2 mph /  0.3 km/h 1.2 mph /  1.9 km/h 80 % 0.00 in /  0 mm
15:16 78.2 °F /  25.7 °C 71.2 °F /  21.8 °C 29.88 in /  1011.7 hPa NE 0.8 mph /  1.3 km/h 3.5 mph /  5.6 km/h 79 % 0.00 in /  0 mm
15:21 78.1 °F /  25.6 °C 71.1 °F /  21.7 °C 29.88 in /  1011.7 hPa ENE 1.5 mph /  2.4 km/h 3.5 mph /  5.6 km/h 79 % 0.00 in /  0 mm
15:27 77.9 °F /  25.5 °C 71.2 °F /  21.8 °C 29.88 in /  1011.7 hPa Calm   2.3 mph /  3.7 km/h 80 % 0.00 in /  0 mm
15:32 77.6 °F /  25.3 °C 70.9 °F /  21.6 °C 29.88 in /  1011.7 hPa NNE 0.6 mph /  1 km/h 3.5 mph /  5.6 km/h 80 % 0.00 in /  0 mm
15:37 77.4 °F /  25.2 °C 71.5 °F /  21.9 °C 29.89 in /  1012.1 hPa Calm     82 % 0.00 in /  0 mm
15:42 77.3 °F /  25.2 °C 71.0 °F /  21.7 °C 29.88 in /  1011.7 hPa NNE 0.2 mph /  0.3 km/h 1.2 mph /  1.9 km/h 81 % 0.00 in /  0 mm
15:47 77.2 °F /  25.1 °C 71.3 °F /  21.8 °C 29.88 in /  1011.7 hPa NNE 0.5 mph /  0.8 km/h 1.2 mph /  1.9 km/h 82 % 0.00 in /  0 mm
15:52 77.2 °F /  25.1 °C 70.9 °F /  21.6 °C 29.88 in /  1011.7 hPa NE 0.5 mph /  0.8 km/h 1.2 mph /  1.9 km/h 81 % 0.00 in /  0 mm
15:57 77.1 °F /  25.1 °C 70.8 °F /  21.6 °C 29.88 in /  1011.7 hPa ENE 1.3 mph /  2.1 km/h 3.5 mph /  5.6 km/h 81 % 0.00 in /  0 mm
16:02 77.1 °F /  25.1 °C 71.2 °F /  21.8 °C 29.87 in /  1011.4 hPa ENE 0.6 mph /  1 km/h 2.3 mph /  3.7 km/h 82 % 0.00 in /  0 mm
16:07 77.0 °F /  25 °C 71.1 °F /  21.7 °C 29.87 in /  1011.4 hPa ENE 2.1 mph /  3.4 km/h 3.5 mph /  5.6 km/h 82 % 0.00 in /  0 mm
16:12 76.9 °F /  24.9 °C 71.0 °F /  21.7 °C 29.87 in /  1011.4 hPa ENE 1.6 mph /  2.6 km/h 3.0 mph /  4.8 km/h 82 % 0.00 in /  0 mm
16:17 76.8 °F /  24.9 °C 70.9 °F /  21.6 °C 29.87 in /  1011.4 hPa ENE 1.3 mph /  2.1 km/h 3.5 mph /  5.6 km/h 82 % 0.00 in /  0 mm
16:22 76.6 °F /  24.8 °C 71.0 °F /  21.7 °C 29.87 in /  1011.4 hPa ENE 0.1 mph /  0.2 km/h 1.2 mph /  1.9 km/h 83 % 0.00 in /  0 mm
16:27 76.5 °F /  24.7 °C 70.9 °F /  21.6 °C 29.87 in /  1011.4 hPa Calm   1.2 mph /  1.9 km/h 83 % 0.00 in /  0 mm
16:32 76.4 °F /  24.7 °C 71.2 °F /  21.8 °C 29.87 in /  1011.4 hPa NE 0.1 mph /  0.2 km/h 3.5 mph /  5.6 km/h 84 % 0.00 in /  0 mm
16:37 76.3 °F /  24.6 °C 71.1 °F /  21.7 °C 29.87 in /  1011.4 hPa Calm   3.5 mph /  5.6 km/h 84 % 0.00 in /  0 mm
16:42 76.1 °F /  24.5 °C 71.3 °F /  21.8 °C 29.87 in /  1011.4 hPa Calm   1.2 mph /  1.9 km/h 85 % 0.00 in /  0 mm
16:47 76.0 °F /  24.4 °C 71.2 °F /  21.8 °C 29.87 in /  1011.4 hPa NE 1.7 mph /  2.7 km/h 3.5 mph /  5.6 km/h 85 % 0.00 in /  0 mm
16:52 76.0 °F /  24.4 °C 71.2 °F /  21.8 °C 29.87 in /  1011.4 hPa NE 0.5 mph /  0.8 km/h 2.0 mph /  3.2 km/h 85 % 0.00 in /  0 mm
16:57 75.9 °F /  24.4 °C 71.1 °F /  21.7 °C 29.87 in /  1011.4 hPa Calm   1.2 mph /  1.9 km/h 85 % 0.00 in /  0 mm
17:02 75.8 °F /  24.3 °C 71.0 °F /  21.7 °C 29.86 in /  1011.1 hPa NE 0.1 mph /  0.2 km/h 1.0 mph /  1.6 km/h 85 % 0.00 in /  0 mm
17:07 75.7 °F /  24.3 °C 70.9 °F /  21.6 °C 29.86 in /  1011.1 hPa Calm   1.2 mph /  1.9 km/h 85 % 0.00 in /  0 mm
17:12 75.7 °F /  24.3 °C 70.5 °F /  21.4 °C 29.87 in /  1011.4 hPa NE 0.1 mph /  0.2 km/h 1.2 mph /  1.9 km/h 84 % 0.00 in /  0 mm
17:17 75.7 °F /  24.3 °C 70.9 °F /  21.6 °C 29.86 in /  1011.1 hPa Calm   1.2 mph /  1.9 km/h 85 % 0.00 in /  0 mm
17:23 75.7 °F /  24.3 °C 70.5 °F /  21.4 °C 29.86 in /  1011.1 hPa Calm     84 % 0.00 in /  0 mm
17:28 75.7 °F /  24.3 °C 70.2 °F /  21.2 °C 29.86 in /  1011.1 hPa Calm   1.2 mph /  1.9 km/h 83 % 0.00 in /  0 mm
17:33 75.7 °F /  24.3 °C 70.2 °F /  21.2 °C 29.86 in /  1011.1 hPa NE 1.8 mph /  2.9 km/h 2.3 mph /  3.7 km/h 83 % 0.00 in /  0 mm
17:38 75.6 °F /  24.2 °C 70.1 °F /  21.2 °C 29.86 in /  1011.1 hPa ENE 1.1 mph /  1.8 km/h 3.5 mph /  5.6 km/h 83 % 0.00 in /  0 mm
17:43 75.5 °F /  24.2 °C 70.0 °F /  21.1 °C 29.86 in /  1011.1 hPa Calm     83 % 0.00 in /  0 mm
17:48 75.5 °F /  24.2 °C 70.3 °F /  21.3 °C 29.86 in /  1011.1 hPa ENE 0.1 mph /  0.2 km/h 1.2 mph /  1.9 km/h 84 % 0.00 in /  0 mm
17:53 75.4 °F /  24.1 °C 70.6 °F /  21.4 °C 29.86 in /  1011.1 hPa ENE 0.1 mph /  0.2 km/h 1.2 mph /  1.9 km/h 85 % 0.00 in /  0 mm
17:58 75.3 °F /  24.1 °C 70.5 °F /  21.4 °C 29.86 in /  1011.1 hPa ENE 0.3 mph /  0.5 km/h 1.2 mph /  1.9 km/h 85 % 0.00 in /  0 mm
18:03 75.3 °F /  24.1 °C 70.5 °F /  21.4 °C 29.86 in /  1011.1 hPa ENE 0.1 mph /  0.2 km/h 1.2 mph /  1.9 km/h 85 % 0.00 in /  0 mm
18:08 75.2 °F /  24 °C 70.4 °F /  21.3 °C 29.86 in /  1011.1 hPa Calm     85 % 0.00 in /  0 mm
18:13 75.1 °F /  23.9 °C 70.6 °F /  21.4 °C 29.86 in /  1011.1 hPa Calm     86 % 0.00 in /  0 mm
18:18 75.0 °F /  23.9 °C 70.5 °F /  21.4 °C 29.86 in /  1011.1 hPa Calm   1.2 mph /  1.9 km/h 86 % 0.00 in /  0 mm
18:23 74.9 °F /  23.8 °C 70.4 °F /  21.3 °C 29.86 in /  1011.1 hPa Calm   1.2 mph /  1.9 km/h 86 % 0.00 in /  0 mm
18:29 74.8 °F /  23.8 °C 70.7 °F /  21.5 °C 29.86 in /  1011.1 hPa ENE 0.3 mph /  0.5 km/h   87 % 0.00 in /  0 mm
18:34 74.6 °F /  23.7 °C 70.5 °F /  21.4 °C 29.86 in /  1011.1 hPa Calm     87 % 0.00 in /  0 mm
18:39 74.5 °F /  23.6 °C 70.7 °F /  21.5 °C 29.86 in /  1011.1 hPa Calm     88 % 0.00 in /  0 mm
18:44 74.3 °F /  23.5 °C 70.5 °F /  21.4 °C 29.86 in /  1011.1 hPa Calm     88 % 0.00 in /  0 mm
18:49 74.2 °F /  23.4 °C 70.4 °F /  21.3 °C 29.86 in /  1011.1 hPa Calm     88 % 0.00 in /  0 mm
18:54 74.0 °F /  23.3 °C 70.2 °F /  21.2 °C 29.86 in /  1011.1 hPa Calm     88 % 0.00 in /  0 mm
18:59 73.9 °F /  23.3 °C 70.1 °F /  21.2 °C 29.86 in /  1011.1 hPa Calm     88 % 0.00 in /  0 mm
19:04 73.8 °F /  23.2 °C 70.0 °F /  21.1 °C 29.86 in /  1011.1 hPa Calm     88 % 0.00 in /  0 mm
19:09 73.6 °F /  23.1 °C 69.8 °F /  21 °C 29.86 in /  1011.1 hPa Calm     88 % 0.00 in /  0 mm
19:14 73.5 °F /  23.1 °C 70.1 °F /  21.2 °C 29.86 in /  1011.1 hPa Calm     89 % 0.00 in /  0 mm
19:19 73.3 °F /  22.9 °C 69.9 °F /  21.1 °C 29.86 in /  1011.1 hPa Calm     89 % 0.00 in /  0 mm
19:24 73.2 °F /  22.9 °C 69.8 °F /  21 °C 29.86 in /  1011.1 hPa Calm     89 % 0.00 in /  0 mm
19:29 73.0 °F /  22.8 °C 69.6 °F /  20.9 °C 29.86 in /  1011.1 hPa Calm     89 % 0.00 in /  0 mm
19:34 72.8 °F /  22.7 °C 69.4 °F /  20.8 °C 29.87 in /  1011.4 hPa Calm     89 % 0.00 in /  0 mm
19:39 72.7 °F /  22.6 °C 69.3 °F /  20.7 °C 29.87 in /  1011.4 hPa Calm     89 % 0.00 in /  0 mm
19:44 72.5 °F /  22.5 °C 69.1 °F /  20.6 °C 29.87 in /  1011.4 hPa Calm     89 % 0.00 in /  0 mm
19:49 72.3 °F /  22.4 °C 68.9 °F /  20.5 °C 29.87 in /  1011.4 hPa Calm   1.2 mph /  1.9 km/h 89 % 0.00 in /  0 mm
19:54 72.1 °F /  22.3 °C 68.7 °F /  20.4 °C 29.87 in /  1011.4 hPa SE 0.5 mph /  0.8 km/h 3.5 mph /  5.6 km/h 89 % 0.00 in /  0 mm
19:59 72.0 °F /  22.2 °C 68.6 °F /  20.3 °C 29.87 in /  1011.4 hPa Calm     89 % 0.00 in /  0 mm
20:04 71.9 °F /  22.2 °C 68.5 °F /  20.3 °C 29.87 in /  1011.4 hPa Calm     89 % 0.00 in /  0 mm
20:09 71.8 °F /  22.1 °C 68.4 °F /  20.2 °C 29.88 in /  1011.7 hPa Calm     89 % 0.00 in /  0 mm
20:15 71.7 °F /  22.1 °C 68.3 °F /  20.2 °C 29.87 in /  1011.4 hPa Calm     89 % 0.00 in /  0 mm
20:20 71.5 °F /  21.9 °C 68.1 °F /  20.1 °C 29.87 in /  1011.4 hPa SE 0.2 mph /  0.3 km/h 2.3 mph /  3.7 km/h 89 % 0.00 in /  0 mm
20:25 71.4 °F /  21.9 °C 68.0 °F /  20 °C 29.87 in /  1011.4 hPa SE 0.1 mph /  0.2 km/h 1.2 mph /  1.9 km/h 89 % 0.00 in /  0 mm
20:30 71.3 °F /  21.8 °C 67.9 °F /  19.9 °C 29.87 in /  1011.4 hPa Calm     89 % 0.00 in /  0 mm
20:35 71.2 °F /  21.8 °C 67.8 °F /  19.9 °C 29.87 in /  1011.4 hPa Calm     89 % 0.00 in /  0 mm
20:40 71.1 °F /  21.7 °C 67.7 °F /  19.8 °C 29.87 in /  1011.4 hPa Calm     89 % 0.00 in /  0 mm
20:45 71.0 °F /  21.7 °C 67.6 °F /  19.8 °C 29.87 in /  1011.4 hPa Calm     89 % 0.00 in /  0 mm
20:50 70.9 °F /  21.6 °C 67.2 °F /  19.6 °C 29.87 in /  1011.4 hPa Calm     88 % 0.00 in /  0 mm
20:55 70.8 °F /  21.6 °C 67.1 °F /  19.5 °C 29.87 in /  1011.4 hPa Calm     88 % 0.00 in /  0 mm
21:00 70.7 °F /  21.5 °C 67.0 °F /  19.4 °C 29.87 in /  1011.4 hPa Calm     88 % 0.00 in /  0 mm
21:05 70.5 °F /  21.4 °C 66.8 °F /  19.3 °C 29.87 in /  1011.4 hPa Calm     88 % 0.00 in /  0 mm
21:10 70.4 °F /  21.3 °C 66.7 °F /  19.3 °C 29.87 in /  1011.4 hPa Calm     88 % 0.00 in /  0 mm
21:15 70.3 °F /  21.3 °C 66.6 °F /  19.2 °C 29.87 in /  1011.4 hPa Calm     88 % 0.00 in /  0 mm
21:20 70.1 °F /  21.2 °C 66.7 °F /  19.3 °C 29.87 in /  1011.4 hPa SE 0.2 mph /  0.3 km/h 2.3 mph /  3.7 km/h 89 % 0.00 in /  0 mm
21:25 70.0 °F /  21.1 °C 66.6 °F /  19.2 °C 29.87 in /  1011.4 hPa Calm     89 % 0.00 in /  0 mm
21:30 69.8 °F /  21 °C 66.4 °F /  19.1 °C 29.87 in /  1011.4 hPa Calm     89 % 0.00 in /  0 mm
21:35 69.7 °F /  20.9 °C 66.3 °F /  19.1 °C 29.87 in /  1011.4 hPa Calm     89 % 0.00 in /  0 mm
21:40 69.6 °F /  20.9 °C 66.5 °F /  19.2 °C 29.87 in /  1011.4 hPa SE 1.1 mph /  1.8 km/h 3.5 mph /  5.6 km/h 90 % 0.00 in /  0 mm
21:45 69.5 °F /  20.8 °C 66.4 °F /  19.1 °C 29.87 in /  1011.4 hPa Calm   2.3 mph /  3.7 km/h 90 % 0.00 in /  0 mm
21:51 69.5 °F /  20.8 °C 66.8 °F /  19.3 °C 29.88 in /  1011.7 hPa SE 0.5 mph /  0.8 km/h 1.2 mph /  1.9 km/h 91 % 0.00 in /  0 mm
21:55 69.5 °F /  20.8 °C 66.8 °F /  19.3 °C 29.87 in /  1011.4 hPa SE 0.9 mph /  1.4 km/h 2.3 mph /  3.7 km/h 91 % 0.00 in /  0 mm
22:01 69.5 °F /  20.8 °C 66.8 °F /  19.3 °C 29.87 in /  1011.4 hPa SE 0.1 mph /  0.2 km/h 1.2 mph /  1.9 km/h 91 % 0.00 in /  0 mm
22:06 69.5 °F /  20.8 °C 66.8 °F /  19.3 °C 29.87 in /  1011.4 hPa Calm     91 % 0.00 in /  0 mm
22:11 69.5 °F /  20.8 °C 66.8 °F /  19.3 °C 29.87 in /  1011.4 hPa Calm   1.0 mph /  1.6 km/h 91 % 0.00 in /  0 mm
22:16 69.4 °F /  20.8 °C 66.7 °F /  19.3 °C 29.87 in /  1011.4 hPa Calm   2.0 mph /  3.2 km/h 91 % 0.00 in /  0 mm
22:21 69.4 °F /  20.8 °C 66.7 °F /  19.3 °C 29.88 in /  1011.7 hPa Calm     91 % 0.00 in /  0 mm
22:26 69.4 °F /  20.8 °C 66.7 °F /  19.3 °C 29.88 in /  1011.7 hPa Calm     91 % 0.00 in /  0 mm
22:31 69.3 °F /  20.7 °C 66.6 °F /  19.2 °C 29.88 in /  1011.7 hPa Calm     91 % 0.00 in /  0 mm
22:36 69.2 °F /  20.7 °C 66.5 °F /  19.2 °C 29.88 in /  1011.7 hPa Calm     91 % 0.00 in /  0 mm
22:41 69.2 °F /  20.7 °C 66.5 °F /  19.2 °C 29.88 in /  1011.7 hPa Calm     91 % 0.00 in /  0 mm
22:46 69.1 °F /  20.6 °C 66.4 °F /  19.1 °C 29.88 in /  1011.7 hPa Calm     91 % 0.00 in /  0 mm
22:51 69.0 °F /  20.6 °C 66.3 °F /  19.1 °C 29.88 in /  1011.7 hPa Calm     91 % 0.00 in /  0 mm
22:56 68.9 °F /  20.5 °C 66.2 °F /  19 °C 29.87 in /  1011.4 hPa Calm     91 % 0.00 in /  0 mm
23:01 68.8 °F /  20.4 °C 66.1 °F /  18.9 °C 29.87 in /  1011.4 hPa Calm     91 % 0.00 in /  0 mm
23:06 68.7 °F /  20.4 °C 66.0 °F /  18.9 °C 29.87 in /  1011.4 hPa Calm     91 % 0.00 in /  0 mm
23:11 68.6 °F /  20.3 °C 65.9 °F /  18.8 °C 29.87 in /  1011.4 hPa Calm     91 % 0.00 in /  0 mm
23:16 68.5 °F /  20.3 °C 65.8 °F /  18.8 °C 29.87 in /  1011.4 hPa Calm     91 % 0.00 in /  0 mm
23:21 68.4 °F /  20.2 °C 65.7 °F /  18.7 °C 29.87 in /  1011.4 hPa Calm     91 % 0.00 in /  0 mm
23:26 68.3 °F /  20.2 °C 65.6 °F /  18.7 °C 29.87 in /  1011.4 hPa Calm     91 % 0.00 in /  0 mm
23:31 68.2 °F /  20.1 °C 65.5 °F /  18.6 °C 29.86 in /  1011.1 hPa Calm     91 % 0.00 in /  0 mm
23:37 68.1 °F /  20.1 °C 65.4 °F /  18.6 °C 29.87 in /  1011.4 hPa Calm     91 % 0.00 in /  0 mm
23:42 68.0 °F /  20 °C 65.3 °F /  18.5 °C 29.86 in /  1011.1 hPa Calm     91 % 0.00 in /  0 mm
23:47 67.9 °F /  19.9 °C 65.2 °F /  18.4 °C 29.86 in /  1011.1 hPa Calm     91 % 0.00 in /  0 mm
23:52 67.8 °F /  19.9 °C 65.1 °F /  18.4 °C 29.86 in /  1011.1 hPa Calm     91 % 0.00 in /  0 mm
23:57 67.7 °F /  19.8 °C 65.0 °F /  18.3 °C 29.85 in /  1010.7 hPa Calm     91 % 0.00 in /  0 mm
Crab Meadow Weather
Compliments of Weather Underground - 3 mb

Script developed by  Jim McMurry - jmcmurry@mwt.net Adapted for the template by  Wim van der Kuil - Leuven-Template.eu

Weather Terms: Gustnado - A gust front tornado. A small, weak, short-lived tornado that occurs along a gust front - the leading edge of a thunderstorm, caused by rain-cooled air flowing out from the storm's downdraft. A gustnado is often visible as a debris cloud or dust whirl.